createdAt,value
2018-11-28T00:00:31.080Z,3.77
2018-11-28T00:02:59.982Z,4.67
2018-11-28T00:05:27.835Z,3.40
2018-11-28T00:07:55.564Z,4.33
2018-11-28T00:10:23.381Z,3.33
2018-11-28T00:12:51.192Z,2.77
2018-11-28T00:15:18.940Z,3.50
2018-11-28T00:17:46.653Z,2.50
2018-11-28T00:20:16.627Z,3.47
2018-11-28T00:22:44.556Z,2.30
2018-11-28T00:25:13.132Z,2.77
2018-11-28T00:27:40.945Z,3.00
2018-11-28T00:30:24.233Z,3.70
2018-11-28T00:32:51.990Z,2.80
2018-11-28T00:35:21.620Z,2.27
2018-11-28T00:37:49.395Z,4.03
2018-11-28T00:40:18.665Z,2.00
2018-11-28T00:42:46.372Z,2.47
2018-11-28T00:45:19.518Z,4.60
2018-11-28T00:47:47.343Z,2.80
2018-11-28T00:50:16.339Z,2.07
2018-11-28T00:52:44.073Z,3.30
2018-11-28T00:55:13.733Z,3.77
2018-11-28T00:57:41.485Z,3.80
2018-11-28T01:00:10.816Z,3.77
2018-11-28T01:02:38.708Z,2.90
2018-11-28T01:05:07.523Z,4.90
2018-11-28T01:07:35.268Z,2.77
2018-11-28T01:10:03.993Z,3.77
2018-11-28T01:12:31.717Z,3.77
2018-11-28T01:14:59.452Z,4.07
2018-11-28T01:17:27.184Z,4.17
2018-11-28T01:19:54.911Z,2.90
2018-11-28T01:22:22.636Z,2.40
2018-11-28T01:24:50.355Z,2.63
2018-11-28T01:27:18.076Z,6.20
2018-11-28T01:29:45.824Z,3.30
2018-11-28T01:32:13.565Z,4.57
2018-11-28T01:34:41.307Z,2.53
2018-11-28T01:37:09.049Z,4.23
2018-11-28T01:39:36.808Z,2.77
2018-11-28T01:42:04.833Z,2.30
2018-11-28T01:44:32.539Z,4.93
2018-11-28T01:47:00.284Z,4.57
2018-11-28T01:49:28.064Z,4.93
2018-11-28T01:51:55.772Z,2.93
2018-11-28T01:54:23.500Z,5.47
2018-11-28T01:56:51.212Z,2.60
2018-11-28T01:59:18.948Z,3.17
2018-11-28T02:01:46.686Z,2.23
2018-11-28T02:04:14.410Z,3.13
2018-11-28T02:06:42.141Z,2.47
2018-11-28T02:09:09.912Z,3.23
2018-11-28T02:11:37.625Z,2.77
2018-11-28T02:14:05.395Z,3.10
2018-11-28T02:16:33.122Z,1.83
2018-11-28T02:19:00.853Z,2.13
2018-11-28T02:21:28.601Z,3.13
2018-11-28T02:23:56.336Z,2.27
2018-11-28T02:26:24.061Z,2.17
2018-11-28T02:28:51.786Z,2.13
2018-11-28T02:31:19.500Z,2.07
2018-11-28T02:33:47.232Z,1.97
2018-11-28T02:36:14.960Z,2.70
2018-11-28T02:38:42.700Z,2.47
2018-11-28T02:41:10.430Z,2.00
2018-11-28T02:43:38.169Z,2.73
2018-11-28T02:46:16.956Z,6.70
2018-11-28T02:48:44.683Z,6.33
2018-11-28T02:51:12.413Z,3.50
2018-11-28T02:53:40.128Z,3.57
2018-11-28T02:56:07.854Z,2.17
2018-11-28T02:58:35.602Z,2.43
2018-11-28T03:01:03.410Z,2.57
2018-11-28T03:03:31.140Z,4.37
2018-11-28T03:05:58.871Z,2.20
2018-11-28T03:08:26.605Z,1.77
2018-11-28T03:10:54.336Z,3.23
2018-11-28T03:13:22.070Z,1.90
2018-11-28T03:15:51.193Z,1.70
2018-11-28T03:18:18.919Z,1.80
2018-11-28T03:20:46.625Z,2.17
2018-11-28T03:23:14.374Z,1.80
2018-11-28T03:25:42.114Z,2.83
2018-11-28T03:28:09.878Z,2.07
2018-11-28T08:09:22.934Z,6.20
2018-11-28T08:11:50.668Z,6.47
2018-11-28T08:14:18.383Z,3.70
2018-11-28T08:16:46.152Z,5.27
2018-11-28T08:19:13.956Z,3.83
2018-11-28T08:21:41.700Z,4.70
2018-11-28T08:24:09.432Z,5.07
2018-11-28T08:26:37.159Z,4.17
2018-11-28T08:29:05.192Z,3.17
2018-11-28T08:31:32.976Z,3.70
2018-11-28T08:34:00.720Z,3.47
2018-11-28T08:36:29.299Z,3.70
2018-11-28T08:38:56.356Z,3.00
2018-11-28T08:41:24.115Z,4.37
2018-11-28T08:43:51.857Z,3.23
2018-11-28T08:46:19.604Z,2.90
2018-11-28T08:48:47.329Z,6.23
2018-11-28T08:51:15.097Z,3.63
2018-11-28T08:53:42.846Z,4.17
2018-11-28T08:56:10.621Z,7.43
2018-11-28T08:58:38.423Z,3.63
2018-11-28T09:01:06.204Z,5.73
2018-11-28T09:03:33.976Z,5.60
2018-11-28T09:06:01.773Z,5.97
2018-11-28T09:08:29.559Z,5.30
2018-11-28T09:10:57.327Z,7.43
2018-11-28T09:13:25.094Z,4.97
2018-11-28T09:15:52.884Z,3.07
2018-11-28T09:18:20.652Z,4.50
2018-11-28T09:20:48.380Z,5.30
2018-11-28T09:23:16.125Z,6.30
2018-11-28T09:25:43.973Z,6.57
2018-11-28T09:28:11.769Z,13.03
2018-11-28T09:30:39.581Z,12.77
2018-11-28T09:33:08.633Z,14.70
2018-11-28T09:35:35.292Z,17.00
2018-11-28T09:38:03.065Z,19.63
2018-11-28T09:40:30.804Z,20.60
2018-11-28T09:42:59.113Z,21.60
2018-11-28T09:45:27.129Z,20.30
2018-11-28T09:47:54.925Z,20.00
2018-11-28T09:50:23.644Z,13.37
2018-11-28T09:52:51.491Z,15.27
2018-11-28T09:55:23.082Z,10.37
2018-11-28T09:57:50.914Z,14.20
2018-11-28T10:00:20.628Z,13.00
2018-11-28T10:02:49.397Z,9.00
2018-11-28T10:05:19.197Z,12.33
2018-11-28T10:07:47.005Z,16.93
2018-11-28T10:10:14.802Z,14.17
2018-11-28T10:12:42.593Z,7.37
2018-11-28T10:15:12.942Z,13.17
2018-11-28T10:17:40.768Z,11.67
2018-11-28T10:20:09.972Z,10.23
2018-11-28T10:22:37.714Z,4.20
2018-11-28T10:25:06.408Z,4.43
2018-11-28T10:27:34.142Z,4.37
2018-11-28T10:30:01.945Z,11.80
2018-11-28T10:32:29.729Z,8.60
2018-11-28T10:34:57.703Z,10.33
2018-11-28T10:37:25.452Z,10.90
2018-11-28T10:39:53.194Z,9.47
2018-11-28T10:42:20.943Z,11.17
2018-11-28T10:44:49.209Z,17.90
2018-11-28T10:47:17.074Z,18.33
2018-11-28T10:49:44.838Z,15.63
2018-11-28T10:52:12.636Z,12.63
2018-11-28T10:54:40.525Z,14.83
2018-11-28T10:57:08.337Z,16.73
2018-11-28T10:59:36.121Z,13.77
2018-11-28T11:02:09.420Z,11.10
2018-11-28T11:04:42.820Z,7.40
2018-11-28T11:07:16.259Z,10.03
2018-11-28T11:09:49.672Z,10.53
2018-11-28T11:12:31.317Z,12.23
2018-11-28T11:14:59.376Z,12.77
2018-11-28T11:17:27.143Z,13.27
2018-11-28T11:19:55.052Z,7.23
2018-11-28T11:22:22.869Z,8.03
2018-11-28T11:24:50.644Z,17.10
2018-11-28T11:27:18.398Z,15.63
2018-11-28T11:29:46.162Z,11.57
2018-11-28T11:32:13.903Z,14.07
2018-11-28T11:34:41.726Z,15.13
2018-11-28T11:37:09.577Z,20.27
2018-11-28T11:39:37.390Z,16.30
2018-11-28T11:42:05.713Z,16.37
2018-11-28T11:44:33.471Z,17.00
2018-11-28T11:47:01.220Z,14.53
2018-11-28T11:49:29.202Z,14.43
2018-11-28T11:51:57.012Z,20.03
2018-11-28T11:54:24.767Z,13.57
2018-11-28T11:56:52.504Z,16.67
2018-11-28T11:59:20.264Z,20.13
2018-11-28T12:01:48.053Z,19.67
2018-11-28T12:04:15.908Z,18.33
2018-11-28T12:06:43.670Z,23.07
2018-11-28T12:09:11.453Z,24.87
2018-11-28T12:11:39.208Z,24.00
2018-11-28T12:14:07.001Z,14.73
2018-11-28T12:16:34.758Z,13.90
2018-11-28T12:19:02.527Z,15.93
2018-11-28T12:21:30.277Z,12.47
2018-11-28T12:23:58.102Z,15.63
2018-11-28T12:26:25.846Z,14.57
2018-11-28T12:28:53.831Z,10.73
2018-11-28T12:31:21.701Z,12.03
2018-11-28T12:33:49.578Z,13.17
2018-11-28T12:36:17.306Z,17.60
2018-11-28T12:38:45.107Z,14.40
2018-11-28T12:41:13.160Z,16.77
2018-11-28T12:43:40.899Z,22.40
2018-11-28T12:46:08.677Z,18.80
2018-11-28T12:48:36.401Z,27.07
2018-11-28T12:51:04.451Z,22.07
2018-11-28T12:53:32.200Z,19.40
2018-11-28T12:55:59.988Z,17.53
2018-11-28T12:58:27.713Z,17.93
2018-11-28T13:00:55.524Z,17.90
2018-11-28T13:03:23.813Z,20.10
2018-11-28T13:05:51.661Z,18.00
2018-11-28T13:08:19.563Z,17.47
2018-11-28T13:10:47.361Z,15.20
2018-11-28T13:13:15.113Z,13.70
2018-11-28T13:15:42.898Z,13.47
2018-11-28T13:18:11.070Z,15.43
2018-11-28T13:20:40.776Z,14.90
2018-11-28T13:23:09.493Z,16.40
2018-11-28T13:25:37.369Z,15.40
2018-11-28T13:28:05.309Z,11.10
2018-11-28T13:30:33.093Z,13.03
2018-11-28T13:33:00.876Z,16.07
2018-11-28T13:35:28.668Z,12.83
2018-11-28T13:38:03.323Z,16.33
2018-11-28T13:40:31.293Z,21.37
2018-11-28T13:42:59.733Z,18.73
2018-11-28T13:45:28.892Z,20.67
2018-11-28T13:47:56.673Z,21.43
2018-11-28T13:50:24.441Z,17.40
2018-11-28T13:52:53.087Z,26.17
2018-11-28T13:55:42.889Z,22.17
2018-11-28T13:57:55.214Z,26.40
2018-11-28T14:00:22.968Z,17.97
2018-11-28T14:02:50.705Z,18.13
2018-11-28T14:05:18.477Z,16.17
2018-11-28T14:07:46.280Z,27.07
2018-11-28T14:10:14.744Z,23.13
2018-11-28T14:12:42.516Z,19.03
2018-11-28T14:15:12.271Z,33.43
2018-11-28T14:17:40.065Z,23.87
2018-11-28T14:20:09.317Z,24.13
2018-11-28T14:22:37.815Z,23.77
2018-11-28T14:25:07.983Z,24.57
2018-11-28T14:27:35.752Z,23.67
2018-11-28T14:30:04.413Z,27.77
2018-11-28T14:32:32.156Z,33.00
2018-11-28T14:34:59.889Z,26.77
2018-11-28T14:37:27.628Z,30.87
2018-11-28T14:39:55.401Z,20.23
2018-11-28T14:42:23.133Z,20.10
2018-11-28T14:44:51.028Z,24.10
2018-11-28T14:47:18.821Z,17.73
2018-11-28T14:49:46.545Z,27.83
2018-11-28T14:52:14.293Z,20.37
2018-11-28T14:54:42.076Z,20.10
2018-11-28T14:57:09.825Z,19.40
2018-11-28T14:59:40.454Z,20.67
2018-11-28T15:02:05.911Z,27.47
2018-11-28T15:04:33.684Z,24.40
2018-11-28T15:07:01.931Z,21.97
2018-11-28T15:09:36.479Z,18.77
2018-11-28T15:12:11.491Z,20.33
2018-11-28T15:14:34.898Z,19.23
2018-11-28T15:17:02.689Z,22.80
2018-11-28T15:19:30.421Z,22.27
2018-11-28T15:21:58.195Z,19.10
2018-11-28T15:24:25.938Z,19.47
2018-11-28T15:26:53.705Z,27.00
2018-11-28T15:29:21.493Z,29.93
2018-11-28T15:31:49.225Z,31.27
2018-11-28T15:34:17.024Z,24.77
2018-11-28T15:36:44.762Z,18.50
2018-11-28T15:39:12.525Z,28.93
2018-11-28T15:41:40.276Z,20.80
2018-11-28T15:44:08.049Z,17.00
2018-11-28T15:46:35.886Z,27.67
2018-11-28T15:49:03.688Z,18.93
2018-11-28T15:51:31.460Z,23.50
2018-11-28T15:53:59.229Z,15.53
2018-11-28T15:56:26.987Z,21.30
2018-11-28T15:58:54.750Z,17.23
2018-11-28T16:01:22.535Z,19.50
2018-11-28T16:03:50.257Z,17.53
2018-11-28T16:06:18.002Z,19.97
2018-11-28T16:08:45.844Z,19.07
2018-11-28T16:11:15.992Z,23.87
2018-11-28T16:13:43.743Z,20.37
2018-11-28T16:16:11.497Z,27.20
2018-11-28T16:18:39.284Z,26.83
2018-11-28T16:21:07.030Z,23.73
2018-11-28T16:23:34.808Z,27.43
2018-11-28T16:26:02.585Z,24.87
2018-11-28T16:28:30.333Z,27.67
2018-11-28T16:30:58.083Z,28.97
2018-11-28T16:33:25.833Z,27.53
2018-11-28T16:35:53.993Z,28.80
2018-11-28T16:38:21.732Z,26.63
2018-11-28T16:40:49.469Z,27.30
2018-11-28T16:43:17.265Z,30.50
2018-11-28T16:45:44.992Z,26.33
2018-11-28T16:48:12.716Z,25.97
2018-11-28T16:50:40.440Z,28.23
2018-11-28T16:53:08.181Z,29.57
2018-11-28T16:55:35.920Z,31.77
2018-11-28T16:58:03.731Z,30.47
2018-11-28T17:00:32.109Z,28.33
2018-11-28T17:02:59.892Z,26.90
2018-11-28T17:05:27.688Z,20.50
2018-11-28T17:07:55.493Z,26.10
2018-11-28T17:10:25.384Z,23.63
2018-11-28T17:12:53.552Z,28.80
2018-11-28T17:15:21.299Z,31.83
2018-11-28T17:17:49.080Z,29.17
2018-11-28T17:20:17.837Z,35.07
2018-11-28T17:22:45.881Z,33.07
2018-11-28T17:25:15.815Z,37.93
2018-11-28T17:27:43.584Z,32.90
2018-11-28T17:30:12.660Z,22.10
2018-11-28T17:32:40.419Z,25.63
2018-11-28T17:35:09.361Z,26.40
2018-11-28T17:37:37.400Z,26.37
2018-11-28T17:40:10.336Z,24.43
2018-11-28T17:42:38.089Z,27.53
2018-11-28T17:45:09.909Z,28.60
2018-11-28T17:47:37.718Z,30.03
2018-11-28T17:50:22.693Z,22.10
2018-11-28T17:52:57.735Z,24.50
2018-11-28T17:55:26.372Z,26.80
2018-11-28T17:57:54.125Z,23.77
2018-11-28T18:00:21.917Z,23.67
2018-11-28T18:02:49.644Z,20.63
2018-11-28T18:05:17.381Z,24.93
2018-11-28T18:07:45.117Z,20.67
2018-11-28T18:10:15.912Z,15.83
2018-11-28T18:12:54.657Z,19.00
2018-11-28T18:15:22.655Z,19.37
2018-11-28T18:17:51.133Z,18.23
2018-11-28T18:20:18.858Z,20.72
2018-11-28T18:22:47.212Z,21.60
2018-11-28T18:25:15.022Z,20.67
2018-11-28T18:27:42.758Z,18.20
2018-11-28T18:30:11.680Z,20.13
2018-11-28T18:32:39.488Z,22.13
2018-11-28T18:35:08.850Z,19.17
2018-11-28T18:37:36.741Z,18.67
2018-11-28T18:40:11.767Z,19.10
2018-11-28T18:42:40.334Z,18.70
2018-11-28T18:45:18.344Z,17.17
2018-11-28T18:47:45.641Z,15.90
2018-11-28T18:50:13.864Z,21.10
2018-11-28T18:52:41.636Z,23.37
2018-11-28T18:55:16.598Z,22.20
2018-11-28T18:57:39.488Z,21.87
2018-11-28T19:00:20.955Z,20.83
2018-11-28T19:02:49.967Z,21.30
2018-11-28T19:05:17.802Z,20.03
2018-11-28T19:07:46.937Z,20.17
2018-11-28T19:10:26.017Z,20.93
2018-11-28T19:12:48.413Z,21.97
2018-11-28T19:15:18.538Z,20.13
2018-11-28T19:17:46.873Z,17.40
2018-11-28T19:20:16.726Z,17.63
2018-11-28T19:22:45.117Z,17.17
2018-11-28T19:25:20.743Z,17.77
2018-11-28T19:30:39.722Z,20.47
2018-11-28T19:33:08.710Z,23.07
2018-11-28T19:35:36.503Z,18.20
2018-11-28T19:38:05.237Z,17.90
2018-11-28T19:41:10.462Z,20.93
2018-11-28T19:43:38.211Z,20.17
2018-11-28T19:46:06.219Z,17.37
2018-11-28T19:48:33.945Z,15.83
2018-11-28T19:51:01.676Z,17.47
2018-11-28T19:53:29.417Z,13.80
2018-11-28T19:55:57.148Z,14.57
2018-11-28T19:58:24.901Z,12.40
2018-11-28T20:00:52.770Z,15.73
2018-11-28T20:03:20.584Z,15.60
2018-11-28T20:05:48.864Z,13.63
2018-11-28T20:08:16.617Z,12.50
2018-11-28T20:10:44.347Z,12.23
2018-11-28T20:13:12.085Z,13.03
2018-11-28T20:15:42.618Z,12.73
2018-11-28T20:18:10.373Z,16.33
2018-11-28T20:20:38.122Z,13.27
2018-11-28T20:23:06.772Z,13.33
2018-11-28T20:25:34.551Z,12.80
2018-11-28T20:28:02.295Z,15.63
2018-11-28T20:30:35.295Z,14.33
2018-11-28T20:33:03.076Z,15.20
2018-11-28T20:35:30.794Z,12.20
2018-11-28T20:37:58.529Z,12.07
2018-11-28T20:40:26.298Z,13.30
2018-11-28T20:42:54.988Z,12.53
2018-11-28T20:45:23.401Z,11.70
2018-11-28T20:47:51.161Z,11.47
2018-11-28T20:50:28.484Z,13.80
2018-11-28T20:52:57.951Z,12.57
2018-11-28T20:55:25.726Z,14.63
2018-11-28T20:57:53.513Z,11.97
2018-11-28T21:00:22.625Z,11.40
2018-11-28T21:02:50.446Z,11.57
2018-11-28T21:05:18.402Z,9.57
2018-11-28T21:07:46.196Z,10.73
2018-11-28T21:10:20.089Z,10.63
2018-11-28T21:12:47.840Z,12.80
2018-11-28T21:15:15.605Z,10.87
2018-11-28T21:17:43.930Z,12.30
2018-11-28T21:20:13.649Z,11.53
2018-11-28T21:22:41.670Z,10.47
2018-11-28T21:25:10.796Z,12.20
2018-11-28T21:27:38.601Z,11.57
2018-11-28T21:30:10.004Z,12.93
2018-11-28T21:32:37.773Z,15.03
2018-11-28T21:35:07.920Z,12.73
2018-11-28T21:37:35.657Z,14.73
2018-11-28T21:40:03.497Z,10.77
2018-11-28T21:42:31.213Z,10.50
2018-11-28T21:44:58.941Z,11.93
2018-11-28T21:47:26.685Z,12.17
2018-11-28T21:49:54.453Z,14.00
2018-11-28T21:52:22.235Z,11.53
2018-11-28T21:54:49.959Z,10.70
2018-11-28T21:57:17.707Z,13.13
2018-11-28T21:59:45.441Z,11.03
2018-11-28T22:02:13.164Z,16.03
2018-11-28T22:04:40.888Z,12.47
2018-11-28T22:07:08.617Z,14.33
2018-11-28T22:09:36.373Z,14.90
2018-11-28T22:12:04.136Z,14.77
2018-11-28T22:14:31.872Z,15.93
2018-11-28T22:16:59.597Z,13.30
2018-11-28T22:19:27.330Z,10.73
2018-11-28T22:21:55.064Z,12.37
2018-11-28T22:24:22.793Z,13.27
2018-11-28T22:26:50.520Z,13.80
2018-11-28T22:29:18.297Z,13.33
2018-11-28T22:31:46.017Z,11.23
2018-11-28T22:34:13.744Z,12.10
2018-11-28T22:36:41.526Z,14.27
2018-11-28T22:39:09.301Z,12.23
2018-11-28T22:41:37.425Z,11.70
2018-11-28T22:44:05.156Z,14.13
2018-11-28T22:46:32.885Z,11.57
2018-11-28T22:49:00.614Z,13.23
2018-11-28T22:51:28.354Z,10.87
2018-11-28T22:53:56.077Z,11.13
2018-11-28T22:56:23.800Z,11.87
2018-11-28T22:58:51.524Z,11.83
2018-11-28T23:01:24.685Z,12.57
2018-11-28T23:03:52.561Z,10.93
2018-11-28T23:06:20.304Z,11.10
2018-11-28T23:08:47.934Z,12.60
2018-11-28T23:11:15.690Z,13.77
2018-11-28T23:13:44.432Z,12.83
2018-11-28T23:16:12.181Z,12.93
2018-11-28T23:18:39.909Z,12.00
2018-11-28T23:21:07.629Z,11.80
2018-11-28T23:23:35.405Z,14.40
2018-11-28T23:26:03.157Z,9.40
2018-11-28T23:28:30.894Z,11.73
2018-11-28T23:30:58.641Z,9.10
2018-11-28T23:33:26.373Z,11.73
2018-11-28T23:35:54.093Z,10.80
2018-11-28T23:38:21.808Z,11.90
2018-11-28T23:40:49.541Z,12.07
2018-11-28T23:43:17.325Z,12.83
2018-11-28T23:45:45.076Z,11.30
2018-11-28T23:48:12.825Z,12.30
2018-11-28T23:50:40.544Z,11.00
2018-11-28T23:53:08.300Z,10.03
2018-11-28T23:55:36.020Z,9.97
2018-11-28T23:58:03.740Z,11.10
